sensor_id;sensor_type;location;lat;lon;timestamp;pressure;altitude;pressure_sealevel;temperature;humidity
60427;BME280;46274;47.168;27.604;2023-06-22T06:00:44;100042.75;;;23.64;62.78
60427;BME280;46274;47.168;27.604;2023-06-22T06:08:04;100085.69;;;24.41;62.95
60427;BME280;46274;47.168;27.604;2023-06-22T06:48:38;100003.09;;;24.91;56.23
60427;BME280;46274;47.168;27.604;2023-06-22T06:54:47;100230.91;;;26.44;54.25
60427;BME280;46274;47.168;27.604;2023-06-22T07:01:04;100227.56;;;26.42;53.27
60427;BME280;46274;47.168;27.604;2023-06-22T07:07:25;100147.53;;;25.78;54.12
60427;BME280;46274;47.168;27.604;2023-06-22T07:13:48;100026.25;;;25.58;53.52
60427;BME280;46274;47.168;27.604;2023-06-22T07:20:09;99984.94;;;25.41;53.67
60427;BME280;46274;47.168;27.604;2023-06-22T07:27:05;100050.94;;;25.70;53.77
60427;BME280;46274;47.168;27.604;2023-06-22T07:33:54;100171.94;;;26.88;54.85
60427;BME280;46274;47.168;27.604;2023-06-22T07:40:48;100146.28;;;27.12;51.81
60427;BME280;46274;47.168;27.604;2023-06-22T07:47:44;100058.47;;;27.01;52.58
60427;BME280;46274;47.168;27.604;2023-06-22T07:54:05;100010.28;;;26.50;51.33
60427;BME280;46274;47.168;27.604;2023-06-22T08:00:16;100063.81;;;26.82;51.00
60427;BME280;46274;47.168;27.604;2023-06-22T08:06:26;100217.28;;;27.64;49.83
60427;BME280;46274;47.168;27.604;2023-06-22T08:12:36;100157.50;;;27.51;50.40
60427;BME280;46274;47.168;27.604;2023-06-22T08:19:05;100160.25;;;28.01;48.18
60427;BME280;46274;47.168;27.604;2023-06-22T08:25:25;100162.09;;;27.27;48.69
60427;BME280;46274;47.168;27.604;2023-06-22T08:31:36;100087.22;;;27.35;48.98
60427;BME280;46274;47.168;27.604;2023-06-22T08:37:50;100216.91;;;28.89;47.82
60427;BME280;46274;47.168;27.604;2023-06-22T08:44:01;100087.50;;;28.37;46.47
60427;BME280;46274;47.168;27.604;2023-06-22T08:50:28;100066.88;;;27.74;42.56
60427;BME280;46274;47.168;27.604;2023-06-22T08:56:54;100230.25;;;28.92;45.12
60427;BME280;46274;47.168;27.604;2023-06-22T09:11:45;100221.66;;;29.18;46.68
60427;BME280;46274;47.168;27.604;2023-06-22T09:18:19;100009.84;;;27.72;47.07
60427;BME280;46274;47.168;27.604;2023-06-22T09:24:50;100177.19;;;29.45;44.89
60427;BME280;46274;47.168;27.604;2023-06-22T09:31:12;100148.03;;;29.13;45.05
60427;BME280;46274;47.168;27.604;2023-06-22T09:37:25;100126.84;;;29.31;44.50
60427;BME280;46274;47.168;27.604;2023-06-22T09:43:32;100090.13;;;28.81;44.39
60427;BME280;46274;47.168;27.604;2023-06-22T09:49:40;100202.88;;;30.04;44.68
60427;BME280;46274;47.168;27.604;2023-06-22T09:55:53;100200.53;;;30.11;44.02
60427;BME280;46274;47.168;27.604;2023-06-22T10:02:38;100035.63;;;28.89;43.84
60427;BME280;46274;47.168;27.604;2023-06-22T10:08:58;100121.78;;;28.90;43.80
60427;BME280;46274;47.168;27.604;2023-06-22T10:15:05;100180.41;;;29.95;43.71
60427;BME280;46274;47.168;27.604;2023-06-22T10:22:01;100047.19;;;29.77;43.14
60427;BME280;46274;47.168;27.604;2023-06-22T10:28:26;100174.34;;;30.26;41.89
60427;BME280;46274;47.168;27.604;2023-06-22T10:34:37;100157.72;;;30.16;42.78
60427;BME280;46274;47.168;27.604;2023-06-22T10:40:44;100161.00;;;29.85;40.79
60427;BME280;46274;47.168;27.604;2023-06-22T10:55:06;100135.91;;;30.18;41.42
60427;BME280;46274;47.168;27.604;2023-06-22T11:09:14;99937.56;;;29.52;38.67
60427;BME280;46274;47.168;27.604;2023-06-22T11:22:59;100064.94;;;30.47;40.14
60427;BME280;46274;47.168;27.604;2023-06-22T11:57:14;100099.03;;;30.76;39.48
60427;BME280;46274;47.168;27.604;2023-06-22T12:31:49;99838.97;;;29.71;39.30
60427;BME280;46274;47.168;27.604;2023-06-22T12:50:50;100061.47;;;30.82;38.39
60427;BME280;46274;47.168;27.604;2023-06-22T13:59:06;99798.44;;;29.87;37.19
60427;BME280;46274;47.168;27.604;2023-06-22T14:35:26;99851.78;;;29.99;34.51
60427;BME280;46274;47.168;27.604;2023-06-22T16:32:55;99810.75;;;28.93;39.79
60427;BME280;46274;47.168;27.604;2023-06-22T16:39:22;99899.28;;;29.39;40.33
60427;BME280;46274;47.168;27.604;2023-06-22T16:46:18;99937.22;;;29.73;41.24
60427;BME280;46274;47.168;27.604;2023-06-22T17:06:37;100020.03;;;29.96;43.03
60427;BME280;46274;47.168;27.604;2023-06-22T17:20:19;99815.94;;;28.67;43.78
60427;BME280;46274;47.168;27.604;2023-06-22T19:26:24;99992.91;;;23.54;64.23
60427;BME280;46274;47.168;27.604;2023-06-22T19:48:28;99809.31;;;21.54;68.11
60427;BME280;46274;47.168;27.604;2023-06-22T19:55:24;100043.63;;;23.69;65.89
60427;BME280;46274;47.168;27.604;2023-06-22T20:09:30;99850.03;;;22.95;62.91
60427;BME280;46274;47.168;27.604;2023-06-22T20:17:04;99858.53;;;21.46;69.98
60427;BME280;46274;47.168;27.604;2023-06-22T20:23:51;99818.34;;;22.43;63.83
60427;BME280;46274;47.168;27.604;2023-06-22T20:30:40;99798.16;;;21.27;68.66
60427;BME280;46274;47.168;27.604;2023-06-22T20:37:07;100009.69;;;22.65;68.72
60427;BME280;46274;47.168;27.604;2023-06-22T20:43:28;100036.63;;;23.02;67.74
60427;BME280;46274;47.168;27.604;2023-06-22T20:50:16;99904.41;;;22.35;65.25
60427;BME280;46274;47.168;27.604;2023-06-22T20:56:34;100020.84;;;22.32;68.31
60427;BME280;46274;47.168;27.604;2023-06-22T21:03:35;99775.25;;;21.05;65.99
60427;BME280;46274;47.168;27.604;2023-06-22T21:10:14;99790.78;;;20.03;70.98
60427;BME280;46274;47.168;27.604;2023-06-22T21:17:09;100011.81;;;21.18;71.86
60427;BME280;46274;47.168;27.604;2023-06-22T21:23:25;99856.19;;;21.21;68.37
60427;BME280;46274;47.168;27.604;2023-06-22T21:29:44;100008.38;;;21.56;70.10
60427;BME280;46274;47.168;27.604;2023-06-22T21:36:03;99903.78;;;21.50;67.78
60427;BME280;46274;47.168;27.604;2023-06-22T21:42:31;99828.16;;;21.41;66.64
60427;BME280;46274;47.168;27.604;2023-06-22T21:48:37;99743.28;;;19.91;70.77
60427;BME280;46274;47.168;27.604;2023-06-22T21:54:58;99838.72;;;19.55;76.26
60427;BME280;46274;47.168;27.604;2023-06-22T22:01:27;99900.97;;;19.85;75.54
60427;BME280;46274;47.168;27.604;2023-06-22T22:07:33;99802.56;;;19.23;78.01
60427;BME280;46274;47.168;27.604;2023-06-22T22:14:36;99762.66;;;19.32;76.17
60427;BME280;46274;47.168;27.604;2023-06-22T22:21:10;99694.69;;;19.39;73.17
60427;BME280;46274;47.168;27.604;2023-06-22T22:34:39;99766.09;;;18.68;78.90
60427;BME280;46274;47.168;27.604;2023-06-22T22:48:17;99702.06;;;18.98;76.05
60427;BME280;46274;47.168;27.604;2023-06-22T22:54:52;99956.69;;;20.56;75.46
60427;BME280;46274;47.168;27.604;2023-06-22T23:01:37;99891.13;;;20.00;76.99
60427;BME280;46274;47.168;27.604;2023-06-22T23:08:49;99748.25;;;19.01;77.54
60427;BME280;46274;47.168;27.604;2023-06-22T23:22:40;99885.28;;;19.85;78.64
60427;BME280;46274;47.168;27.604;2023-06-22T23:29:39;99884.72;;;19.36;80.61
60427;BME280;46274;47.168;27.604;2023-06-22T23:35:56;99717.81;;;18.91;77.14
60427;BME280;46274;47.168;27.604;2023-06-22T23:42:28;99748.53;;;19.52;74.72
60427;BME280;46274;47.168;27.604;2023-06-22T23:49:19;99956.25;;;20.76;75.43
60427;BME280;46274;47.168;27.604;2023-06-22T23:56:37;99957.59;;;19.50;83.59
